CheckWX is a tool to help pilots better visualize weather data.  It is not intended as a substitute for an official pre-flight weather briefing.

17:31:14 UTC

EGQS METAR
RAF Lossiemouth Airport
Lossiemouth, United Kingdom
Current

41 mins ago

EGQS 241650Z AUTO 28023G35KT 9999 // NCD 06/02 Q1018
Observed
Mar-24 @ 16:50 UTC
Wind
  • 280° at 23 KTS
  • Gusting to 35 KTS
Visibility
10,000+ meters
Flight Rules
VFR
Cloud Levels
  • Clear skies
Temperature
C / 43°F
Dewpoint
C / 36°F
Humidity
76%
Altimeter
30.06" Hg
Pressure
1017.92 hPa
Previous

2 hours ago

EGQS 241550Z 25021KT 9999 -SHRA FEW020CB SCT050 05/02 Q1018 BLU
Observed
Mar-24 @ 15:50 UTC
Wind
  • 250° at 21 KTS
Visibility
10,000+ meters
Flight Rules
VFR
Conditions
Light Rain
Cloud Levels
  • Few at 2,000' AGL
  • Scattered at 5,000' AGL
Temperature
C / 41°F
Dewpoint
C / 36°F
Humidity
81%
Altimeter
30.06" Hg
Pressure
1017.92 hPa
Previous

3 hours ago

EGQS 241450Z 28024G40KT 9999 5000S SHRA SCT017CB SCT020 BKN090 03/01 Q1018 WHT
Observed
Mar-24 @ 14:50 UTC
Wind
  • 280° at 24 KTS
  • Gusting to 40 KTS
Visibility
10,000+ meters
Flight Rules
VFR
Conditions
Rain
Cloud Levels
  • Scattered at 1,700' AGL
  • Scattered at 2,000' AGL
  • Broken at 9,000' AGL
Temperature
C / 37°F
Dewpoint
C / 34°F
Humidity
87%
Altimeter
30.06" Hg
Pressure
1017.92 hPa